sensor_id;sensor_type;location;lat;lon;timestamp;P1;durP1;ratioP1;P2;durP2;ratioP2
12302;SDS011;6214;48.012;7.862;2022-09-09T00:04:37;5.95;;;1.08;;
12302;SDS011;6214;48.012;7.862;2022-09-09T00:09:59;5.13;;;1.27;;
12302;SDS011;6214;48.012;7.862;2022-09-09T00:12:42;4.70;;;1.00;;
12302;SDS011;6214;48.012;7.862;2022-09-09T00:15:19;5.00;;;1.00;;
12302;SDS011;6214;48.012;7.862;2022-09-09T00:22:53;4.50;;;0.95;;
12302;SDS011;6214;48.012;7.862;2022-09-09T00:25:51;6.40;;;1.20;;
12302;SDS011;6214;48.012;7.862;2022-09-09T00:28:28;3.70;;;1.00;;
12302;SDS011;6214;48.012;7.862;2022-09-09T00:31:07;5.20;;;1.15;;
12302;SDS011;6214;48.012;7.862;2022-09-09T00:33:39;4.13;;;1.00;;
12302;SDS011;6214;48.012;7.862;2022-09-09T00:36:16;4.53;;;1.10;;
12302;SDS011;6214;48.012;7.862;2022-09-09T00:38:51;4.78;;;1.00;;
12302;SDS011;6214;48.012;7.862;2022-09-09T00:49:45;4.30;;;1.10;;
12302;SDS011;6214;48.012;7.862;2022-09-09T00:57:22;4.00;;;1.00;;
12302;SDS011;6214;48.012;7.862;2022-09-09T01:00:16;4.80;;;1.20;;
12302;SDS011;6214;48.012;7.862;2022-09-09T01:02:47;3.85;;;1.00;;
12302;SDS011;6214;48.012;7.862;2022-09-09T01:05:27;3.88;;;1.02;;
12302;SDS011;6214;48.012;7.862;2022-09-09T01:07:56;4.65;;;1.00;;
12302;SDS011;6214;48.012;7.862;2022-09-09T01:10:37;5.28;;;1.00;;
12302;SDS011;6214;48.012;7.862;2022-09-09T01:13:16;4.80;;;1.10;;
12302;SDS011;6214;48.012;7.862;2022-09-09T01:15:53;5.22;;;1.30;;
12302;SDS011;6214;48.012;7.862;2022-09-09T01:18:27;4.75;;;1.20;;
12302;SDS011;6214;48.012;7.862;2022-09-09T01:27:05;4.50;;;1.10;;
12302;SDS011;6214;48.012;7.862;2022-09-09T01:29:17;4.60;;;1.20;;
12302;SDS011;6214;48.012;7.862;2022-09-09T01:34:20;3.70;;;1.00;;
12302;SDS011;6214;48.012;7.862;2022-09-09T01:39:24;3.75;;;0.95;;
12302;SDS011;6214;48.012;7.862;2022-09-09T01:41:52;4.13;;;1.00;;
12302;SDS011;6214;48.012;7.862;2022-09-09T01:44:21;5.53;;;1.50;;
12302;SDS011;6214;48.012;7.862;2022-09-09T01:46:49;6.50;;;1.40;;
12302;SDS011;6214;48.012;7.862;2022-09-09T01:49:16;5.03;;;1.40;;
12302;SDS011;6214;48.012;7.862;2022-09-09T01:51:44;4.10;;;1.10;;
12302;SDS011;6214;48.012;7.862;2022-09-09T01:54:15;4.67;;;1.20;;
12302;SDS011;6214;48.012;7.862;2022-09-09T01:56:58;5.45;;;1.30;;
12302;SDS011;6214;48.012;7.862;2022-09-09T02:02:11;5.00;;;1.30;;
12302;SDS011;6214;48.012;7.862;2022-09-09T02:04:50;4.78;;;1.10;;
12302;SDS011;6214;48.012;7.862;2022-09-09T02:10:17;4.80;;;1.10;;
12302;SDS011;6214;48.012;7.862;2022-09-09T02:12:51;4.45;;;1.05;;
12302;SDS011;6214;48.012;7.862;2022-09-09T02:15:23;4.60;;;1.40;;
12302;SDS011;6214;48.012;7.862;2022-09-09T02:17:56;5.32;;;1.50;;
12302;SDS011;6214;48.012;7.862;2022-09-09T02:20:24;5.40;;;1.30;;
12302;SDS011;6214;48.012;7.862;2022-09-09T02:22:58;4.50;;;1.30;;
12302;SDS011;6214;48.012;7.862;2022-09-09T02:25:28;5.18;;;1.25;;
12302;SDS011;6214;48.012;7.862;2022-09-09T02:27:56;5.68;;;1.15;;
12302;SDS011;6214;48.012;7.862;2022-09-09T02:30:27;5.07;;;1.50;;
12302;SDS011;6214;48.012;7.862;2022-09-09T02:32:58;5.05;;;1.30;;
12302;SDS011;6214;48.012;7.862;2022-09-09T02:35:27;3.90;;;1.10;;
12302;SDS011;6214;48.012;7.862;2022-09-09T02:37:58;4.43;;;1.30;;
12302;SDS011;6214;48.012;7.862;2022-09-09T02:40:28;6.40;;;1.30;;
12302;SDS011;6214;48.012;7.862;2022-09-09T02:42:55;5.17;;;1.33;;
12302;SDS011;6214;48.012;7.862;2022-09-09T02:45:25;4.60;;;1.20;;
12302;SDS011;6214;48.012;7.862;2022-09-09T02:56:51;4.30;;;1.20;;
12302;SDS011;6214;48.012;7.862;2022-09-09T02:59:22;4.25;;;1.20;;
12302;SDS011;6214;48.012;7.862;2022-09-09T03:01:52;4.28;;;1.20;;
12302;SDS011;6214;48.012;7.862;2022-09-09T03:04:19;5.10;;;1.15;;
12302;SDS011;6214;48.012;7.862;2022-09-09T03:06:46;5.35;;;1.30;;
12302;SDS011;6214;48.012;7.862;2022-09-09T03:09:13;4.78;;;1.23;;
12302;SDS011;6214;48.012;7.862;2022-09-09T03:11:40;4.20;;;1.20;;
12302;SDS011;6214;48.012;7.862;2022-09-09T03:14:07;5.13;;;1.10;;
12302;SDS011;6214;48.012;7.862;2022-09-09T03:16:34;3.67;;;1.10;;
12302;SDS011;6214;48.012;7.862;2022-09-09T03:19:01;4.20;;;1.17;;
12302;SDS011;6214;48.012;7.862;2022-09-09T03:21:28;5.90;;;1.60;;
12302;SDS011;6214;48.012;7.862;2022-09-09T03:23:55;5.00;;;1.40;;
12302;SDS011;6214;48.012;7.862;2022-09-09T03:26:23;4.87;;;1.23;;
12302;SDS011;6214;48.012;7.862;2022-09-09T03:28:50;4.93;;;1.20;;
12302;SDS011;6214;48.012;7.862;2022-09-09T03:31:18;4.65;;;1.10;;
12302;SDS011;6214;48.012;7.862;2022-09-09T03:33:45;5.10;;;1.20;;
12302;SDS011;6214;48.012;7.862;2022-09-09T03:36:12;4.50;;;1.30;;
12302;SDS011;6214;48.012;7.862;2022-09-09T03:38:41;4.85;;;1.15;;
12302;SDS011;6214;48.012;7.862;2022-09-09T03:41:07;4.30;;;1.00;;
12302;SDS011;6214;48.012;7.862;2022-09-09T03:43:35;4.32;;;1.00;;
12302;SDS011;6214;48.012;7.862;2022-09-09T03:46:02;5.03;;;1.20;;
12302;SDS011;6214;48.012;7.862;2022-09-09T03:48:29;5.00;;;1.10;;
12302;SDS011;6214;48.012;7.862;2022-09-09T03:50:56;4.97;;;1.00;;
12302;SDS011;6214;48.012;7.862;2022-09-09T03:53:27;5.90;;;1.10;;
12302;SDS011;6214;48.012;7.862;2022-09-09T03:55:55;4.70;;;1.00;;
12302;SDS011;6214;48.012;7.862;2022-09-09T03:58:26;4.27;;;1.00;;
12302;SDS011;6214;48.012;7.862;2022-09-09T04:00:58;4.20;;;1.10;;
12302;SDS011;6214;48.012;7.862;2022-09-09T04:03:27;4.53;;;0.90;;
12302;SDS011;6214;48.012;7.862;2022-09-09T04:05:56;4.50;;;1.10;;
12302;SDS011;6214;48.012;7.862;2022-09-09T04:08:25;4.80;;;1.30;;
12302;SDS011;6214;48.012;7.862;2022-09-09T04:10:52;4.40;;;1.20;;
12302;SDS011;6214;48.012;7.862;2022-09-09T04:13:24;4.57;;;1.10;;
12302;SDS011;6214;48.012;7.862;2022-09-09T04:15:52;6.35;;;1.25;;
12302;SDS011;6214;48.012;7.862;2022-09-09T04:18:21;4.95;;;1.10;;
12302;SDS011;6214;48.012;7.862;2022-09-09T04:20:50;3.97;;;0.90;;
12302;SDS011;6214;48.012;7.862;2022-09-09T04:23:18;4.20;;;1.00;;
12302;SDS011;6214;48.012;7.862;2022-09-09T04:25:47;3.58;;;0.80;;
12302;SDS011;6214;48.012;7.862;2022-09-09T04:28:15;4.78;;;0.90;;
12302;SDS011;6214;48.012;7.862;2022-09-09T04:30:43;4.60;;;1.02;;
12302;SDS011;6214;48.012;7.862;2022-09-09T04:33:11;4.15;;;1.00;;
12302;SDS011;6214;48.012;7.862;2022-09-09T04:35:39;5.65;;;1.08;;
12302;SDS011;6214;48.012;7.862;2022-09-09T04:38:15;5.72;;;1.05;;
12302;SDS011;6214;48.012;7.862;2022-09-09T04:40:46;3.60;;;0.90;;
12302;SDS011;6214;48.012;7.862;2022-09-09T04:43:13;5.10;;;1.00;;
12302;SDS011;6214;48.012;7.862;2022-09-09T04:45:41;4.50;;;1.00;;
12302;SDS011;6214;48.012;7.862;2022-09-09T04:48:08;4.20;;;1.10;;
12302;SDS011;6214;48.012;7.862;2022-09-09T04:50:38;4.88;;;0.90;;
12302;SDS011;6214;48.012;7.862;2022-09-09T04:53:06;4.70;;;0.80;;
12302;SDS011;6214;48.012;7.862;2022-09-09T04:55:33;4.53;;;0.93;;
12302;SDS011;6214;48.012;7.862;2022-09-09T04:58:04;5.40;;;1.10;;
12302;SDS011;6214;48.012;7.862;2022-09-09T05:00:33;5.00;;;0.90;;
12302;SDS011;6214;48.012;7.862;2022-09-09T05:03:06;3.97;;;0.80;;
12302;SDS011;6214;48.012;7.862;2022-09-09T05:05:35;5.40;;;1.00;;
12302;SDS011;6214;48.012;7.862;2022-09-09T05:08:02;5.20;;;0.90;;
12302;SDS011;6214;48.012;7.862;2022-09-09T05:10:34;5.33;;;1.40;;
12302;SDS011;6214;48.012;7.862;2022-09-09T05:13:08;3.60;;;0.85;;
12302;SDS011;6214;48.012;7.862;2022-09-09T05:15:34;4.55;;;1.00;;
12302;SDS011;6214;48.012;7.862;2022-09-09T05:18:02;4.25;;;1.10;;
12302;SDS011;6214;48.012;7.862;2022-09-09T05:20:29;6.20;;;1.10;;
12302;SDS011;6214;48.012;7.862;2022-09-09T05:22:56;4.30;;;1.10;;
12302;SDS011;6214;48.012;7.862;2022-09-09T05:25:23;5.80;;;1.25;;
12302;SDS011;6214;48.012;7.862;2022-09-09T05:27:52;3.97;;;0.90;;
12302;SDS011;6214;48.012;7.862;2022-09-09T05:30:20;6.05;;;1.00;;
12302;SDS011;6214;48.012;7.862;2022-09-09T05:32:49;3.90;;;0.90;;
12302;SDS011;6214;48.012;7.862;2022-09-09T05:35:16;3.75;;;0.80;;
12302;SDS011;6214;48.012;7.862;2022-09-09T05:37:45;3.93;;;0.90;;
12302;SDS011;6214;48.012;7.862;2022-09-09T05:40:12;5.83;;;1.40;;
12302;SDS011;6214;48.012;7.862;2022-09-09T05:42:40;5.63;;;0.98;;
12302;SDS011;6214;48.012;7.862;2022-09-09T05:45:07;3.77;;;0.80;;
12302;SDS011;6214;48.012;7.862;2022-09-09T05:47:35;4.10;;;1.20;;
12302;SDS011;6214;48.012;7.862;2022-09-09T05:50:03;4.80;;;1.20;;
12302;SDS011;6214;48.012;7.862;2022-09-09T05:52:31;4.80;;;1.50;;
12302;SDS011;6214;48.012;7.862;2022-09-09T05:54:58;4.70;;;1.10;;
12302;SDS011;6214;48.012;7.862;2022-09-09T05:57:25;4.90;;;1.20;;
12302;SDS011;6214;48.012;7.862;2022-09-09T05:59:53;6.10;;;1.13;;
12302;SDS011;6214;48.012;7.862;2022-09-09T06:02:20;4.20;;;1.10;;
12302;SDS011;6214;48.012;7.862;2022-09-09T06:04:47;6.03;;;1.17;;
12302;SDS011;6214;48.012;7.862;2022-09-09T06:07:14;5.97;;;1.10;;
12302;SDS011;6214;48.012;7.862;2022-09-09T06:09:41;4.30;;;1.00;;
12302;SDS011;6214;48.012;7.862;2022-09-09T06:12:08;4.93;;;1.30;;
12302;SDS011;6214;48.012;7.862;2022-09-09T06:14:35;5.30;;;1.20;;
12302;SDS011;6214;48.012;7.862;2022-09-09T06:17:03;4.47;;;0.93;;
12302;SDS011;6214;48.012;7.862;2022-09-09T06:19:30;4.05;;;1.00;;
12302;SDS011;6214;48.012;7.862;2022-09-09T06:21:57;4.38;;;0.90;;
12302;SDS011;6214;48.012;7.862;2022-09-09T06:24:25;5.13;;;1.17;;
12302;SDS011;6214;48.012;7.862;2022-09-09T06:26:52;5.90;;;1.23;;
12302;SDS011;6214;48.012;7.862;2022-09-09T06:29:20;4.65;;;1.00;;
12302;SDS011;6214;48.012;7.862;2022-09-09T06:31:47;4.93;;;1.30;;
12302;SDS011;6214;48.012;7.862;2022-09-09T06:34:14;4.95;;;1.33;;
12302;SDS011;6214;48.012;7.862;2022-09-09T06:36:41;5.60;;;1.35;;
12302;SDS011;6214;48.012;7.862;2022-09-09T06:39:08;4.93;;;1.00;;
12302;SDS011;6214;48.012;7.862;2022-09-09T06:41:40;4.50;;;0.90;;
12302;SDS011;6214;48.012;7.862;2022-09-09T06:44:09;5.20;;;1.10;;
12302;SDS011;6214;48.012;7.862;2022-09-09T06:46:38;4.47;;;1.02;;
12302;SDS011;6214;48.012;7.862;2022-09-09T06:49:07;5.38;;;1.10;;
12302;SDS011;6214;48.012;7.862;2022-09-09T06:51:36;6.00;;;1.30;;
12302;SDS011;6214;48.012;7.862;2022-09-09T06:54:09;4.60;;;1.10;;
12302;SDS011;6214;48.012;7.862;2022-09-09T06:56:38;4.43;;;1.00;;
12302;SDS011;6214;48.012;7.862;2022-09-09T06:59:08;4.80;;;1.20;;
12302;SDS011;6214;48.012;7.862;2022-09-09T07:01:37;5.10;;;1.20;;
12302;SDS011;6214;48.012;7.862;2022-09-09T07:04:07;4.05;;;0.95;;
12302;SDS011;6214;48.012;7.862;2022-09-09T07:06:36;4.43;;;1.15;;
12302;SDS011;6214;48.012;7.862;2022-09-09T07:09:06;4.47;;;1.10;;
12302;SDS011;6214;48.012;7.862;2022-09-09T07:11:53;5.32;;;1.40;;
12302;SDS011;6214;48.012;7.862;2022-09-09T07:14:20;5.37;;;1.30;;
12302;SDS011;6214;48.012;7.862;2022-09-09T07:16:48;4.43;;;1.05;;
12302;SDS011;6214;48.012;7.862;2022-09-09T07:19:15;5.88;;;1.13;;
12302;SDS011;6214;48.012;7.862;2022-09-09T07:21:43;5.28;;;1.30;;
12302;SDS011;6214;48.012;7.862;2022-09-09T07:24:10;4.90;;;1.00;;
12302;SDS011;6214;48.012;7.862;2022-09-09T07:26:39;4.93;;;1.20;;
12302;SDS011;6214;48.012;7.862;2022-09-09T07:29:06;6.32;;;1.40;;
12302;SDS011;6214;48.012;7.862;2022-09-09T07:31:36;5.18;;;1.00;;
12302;SDS011;6214;48.012;7.862;2022-09-09T07:34:04;5.30;;;1.00;;
12302;SDS011;6214;48.012;7.862;2022-09-09T07:36:35;5.70;;;1.00;;
12302;SDS011;6214;48.012;7.862;2022-09-09T07:39:08;4.20;;;0.93;;
12302;SDS011;6214;48.012;7.862;2022-09-09T07:41:41;5.55;;;1.15;;
12302;SDS011;6214;48.012;7.862;2022-09-09T07:44:16;5.30;;;1.20;;
12302;SDS011;6214;48.012;7.862;2022-09-09T07:46:48;7.30;;;1.30;;
12302;SDS011;6214;48.012;7.862;2022-09-09T07:49:16;4.85;;;1.20;;
12302;SDS011;6214;48.012;7.862;2022-09-09T07:51:51;4.60;;;1.10;;
12302;SDS011;6214;48.012;7.862;2022-09-09T07:54:18;5.43;;;1.30;;
12302;SDS011;6214;48.012;7.862;2022-09-09T07:56:46;6.03;;;1.10;;
12302;SDS011;6214;48.012;7.862;2022-09-09T07:59:13;4.60;;;1.10;;
12302;SDS011;6214;48.012;7.862;2022-09-09T08:01:42;6.00;;;1.20;;
12302;SDS011;6214;48.012;7.862;2022-09-09T08:04:15;5.03;;;1.30;;
12302;SDS011;6214;48.012;7.862;2022-09-09T08:06:48;5.50;;;1.20;;
12302;SDS011;6214;48.012;7.862;2022-09-09T08:09:20;6.40;;;1.10;;
12302;SDS011;6214;48.012;7.862;2022-09-09T08:11:48;5.20;;;1.30;;
12302;SDS011;6214;48.012;7.862;2022-09-09T08:14:15;5.30;;;1.00;;
12302;SDS011;6214;48.012;7.862;2022-09-09T08:16:43;4.68;;;1.10;;
12302;SDS011;6214;48.012;7.862;2022-09-09T08:19:12;5.28;;;1.15;;
12302;SDS011;6214;48.012;7.862;2022-09-09T08:21:42;5.88;;;1.50;;
12302;SDS011;6214;48.012;7.862;2022-09-09T08:24:10;5.35;;;1.00;;
12302;SDS011;6214;48.012;7.862;2022-09-09T08:26:45;5.00;;;1.30;;
12302;SDS011;6214;48.012;7.862;2022-09-09T08:29:15;6.28;;;1.15;;
12302;SDS011;6214;48.012;7.862;2022-09-09T08:31:44;5.25;;;1.20;;
12302;SDS011;6214;48.012;7.862;2022-09-09T08:34:13;5.78;;;1.23;;
12302;SDS011;6214;48.012;7.862;2022-09-09T08:36:42;4.82;;;1.10;;
12302;SDS011;6214;48.012;7.862;2022-09-09T08:39:11;6.43;;;1.10;;
12302;SDS011;6214;48.012;7.862;2022-09-09T08:46:51;5.95;;;1.73;;
12302;SDS011;6214;48.012;7.862;2022-09-09T08:55:22;5.20;;;1.10;;
12302;SDS011;6214;48.012;7.862;2022-09-09T08:57:57;4.70;;;1.00;;
12302;SDS011;6214;48.012;7.862;2022-09-09T09:00:29;6.22;;;1.40;;
12302;SDS011;6214;48.012;7.862;2022-09-09T09:11:26;5.38;;;1.20;;
12302;SDS011;6214;48.012;7.862;2022-09-09T09:16:41;5.60;;;1.10;;
12302;SDS011;6214;48.012;7.862;2022-09-09T09:19:30;6.00;;;1.40;;
12302;SDS011;6214;48.012;7.862;2022-09-09T09:24:52;5.40;;;1.10;;
12302;SDS011;6214;48.012;7.862;2022-09-09T09:27:40;5.38;;;1.10;;
12302;SDS011;6214;48.012;7.862;2022-09-09T09:30:14;4.47;;;1.05;;
12302;SDS011;6214;48.012;7.862;2022-09-09T09:33:00;8.27;;;1.90;;
12302;SDS011;6214;48.012;7.862;2022-09-09T09:35:48;14.35;;;3.85;;
12302;SDS011;6214;48.012;7.862;2022-09-09T09:38:17;15.50;;;4.57;;
12302;SDS011;6214;48.012;7.862;2022-09-09T09:41:08;7.38;;;1.60;;
12302;SDS011;6214;48.012;7.862;2022-09-09T09:43:36;6.68;;;1.60;;
12302;SDS011;6214;48.012;7.862;2022-09-09T09:46:17;4.22;;;1.00;;
12302;SDS011;6214;48.012;7.862;2022-09-09T09:49:00;4.55;;;1.17;;
12302;SDS011;6214;48.012;7.862;2022-09-09T09:51:30;4.57;;;0.93;;
12302;SDS011;6214;48.012;7.862;2022-09-09T09:56:41;8.90;;;1.98;;
12302;SDS011;6214;48.012;7.862;2022-09-09T09:59:20;4.97;;;0.98;;
12302;SDS011;6214;48.012;7.862;2022-09-09T10:02:15;4.65;;;1.17;;
12302;SDS011;6214;48.012;7.862;2022-09-09T10:05:02;4.93;;;1.10;;
12302;SDS011;6214;48.012;7.862;2022-09-09T10:07:31;5.80;;;1.20;;
12302;SDS011;6214;48.012;7.862;2022-09-09T10:09:59;5.70;;;1.05;;
12302;SDS011;6214;48.012;7.862;2022-09-09T10:12:37;6.30;;;1.20;;
12302;SDS011;6214;48.012;7.862;2022-09-09T10:23:38;5.20;;;1.23;;
12302;SDS011;6214;48.012;7.862;2022-09-09T10:57:13;4.75;;;1.70;;
12302;SDS011;6214;48.012;7.862;2022-09-09T11:00:23;5.30;;;1.83;;
12302;SDS011;6214;48.012;7.862;2022-09-09T11:02:56;5.80;;;1.50;;
12302;SDS011;6214;48.012;7.862;2022-09-09T11:05:30;6.15;;;2.03;;
12302;SDS011;6214;48.012;7.862;2022-09-09T11:08:19;3.83;;;0.88;;
12302;SDS011;6214;48.012;7.862;2022-09-09T11:13:49;5.03;;;0.90;;
12302;SDS011;6214;48.012;7.862;2022-09-09T11:16:31;4.82;;;0.85;;
12302;SDS011;6214;48.012;7.862;2022-09-09T11:19:19;4.68;;;0.85;;
12302;SDS011;6214;48.012;7.862;2022-09-09T11:22:02;4.80;;;0.82;;
12302;SDS011;6214;48.012;7.862;2022-09-09T11:24:44;5.40;;;1.05;;
12302;SDS011;6214;48.012;7.862;2022-09-09T11:30:21;4.75;;;0.90;;
12302;SDS011;6214;48.012;7.862;2022-09-09T11:33:42;5.10;;;1.00;;
12302;SDS011;6214;48.012;7.862;2022-09-09T11:36:35;4.18;;;0.90;;
12302;SDS011;6214;48.012;7.862;2022-09-09T11:44:39;4.93;;;0.90;;
12302;SDS011;6214;48.012;7.862;2022-09-09T11:52:42;4.10;;;0.90;;
12302;SDS011;6214;48.012;7.862;2022-09-09T11:55:24;5.00;;;1.20;;
12302;SDS011;6214;48.012;7.862;2022-09-09T12:00:40;4.80;;;0.93;;
12302;SDS011;6214;48.012;7.862;2022-09-09T12:06:19;4.10;;;0.82;;
12302;SDS011;6214;48.012;7.862;2022-09-09T12:08:56;4.30;;;1.00;;
12302;SDS011;6214;48.012;7.862;2022-09-09T12:11:32;4.55;;;1.00;;
12302;SDS011;6214;48.012;7.862;2022-09-09T12:13:59;3.97;;;0.70;;
12302;SDS011;6214;48.012;7.862;2022-09-09T12:16:32;4.60;;;0.80;;
12302;SDS011;6214;48.012;7.862;2022-09-09T12:19:06;4.70;;;1.00;;
12302;SDS011;6214;48.012;7.862;2022-09-09T12:22:01;4.20;;;0.80;;
12302;SDS011;6214;48.012;7.862;2022-09-09T12:27:20;4.20;;;0.95;;
12302;SDS011;6214;48.012;7.862;2022-09-09T12:30:09;4.30;;;1.10;;
12302;SDS011;6214;48.012;7.862;2022-09-09T12:32:38;5.50;;;1.20;;
12302;SDS011;6214;48.012;7.862;2022-09-09T12:37:50;4.95;;;1.05;;
12302;SDS011;6214;48.012;7.862;2022-09-09T12:40:24;4.20;;;0.63;;
12302;SDS011;6214;48.012;7.862;2022-09-09T12:42:55;6.22;;;1.20;;
12302;SDS011;6214;48.012;7.862;2022-09-09T12:45:23;5.40;;;1.00;;
12302;SDS011;6214;48.012;7.862;2022-09-09T12:47:56;5.00;;;1.10;;
12302;SDS011;6214;48.012;7.862;2022-09-09T12:50:31;4.75;;;1.13;;
12302;SDS011;6214;48.012;7.862;2022-09-09T12:53:02;5.80;;;1.10;;
12302;SDS011;6214;48.012;7.862;2022-09-09T12:55:36;5.20;;;1.10;;
12302;SDS011;6214;48.012;7.862;2022-09-09T12:58:05;5.20;;;0.90;;
12302;SDS011;6214;48.012;7.862;2022-09-09T13:00:33;4.53;;;0.90;;
12302;SDS011;6214;48.012;7.862;2022-09-09T13:03:02;5.32;;;1.13;;
12302;SDS011;6214;48.012;7.862;2022-09-09T13:05:42;5.15;;;1.10;;
12302;SDS011;6214;48.012;7.862;2022-09-09T13:08:10;5.30;;;0.70;;
12302;SDS011;6214;48.012;7.862;2022-09-09T13:10:41;5.00;;;1.20;;
12302;SDS011;6214;48.012;7.862;2022-09-09T13:13:28;5.07;;;1.00;;
12302;SDS011;6214;48.012;7.862;2022-09-09T13:16:00;4.00;;;0.90;;
12302;SDS011;6214;48.012;7.862;2022-09-09T13:18:34;4.43;;;0.90;;
12302;SDS011;6214;48.012;7.862;2022-09-09T13:21:04;5.13;;;1.00;;
12302;SDS011;6214;48.012;7.862;2022-09-09T13:23:32;5.68;;;1.00;;
12302;SDS011;6214;48.012;7.862;2022-09-09T13:26:02;5.22;;;0.95;;
12302;SDS011;6214;48.012;7.862;2022-09-09T13:28:32;5.90;;;0.90;;
12302;SDS011;6214;48.012;7.862;2022-09-09T13:31:02;4.50;;;0.70;;
12302;SDS011;6214;48.012;7.862;2022-09-09T13:33:45;3.60;;;0.60;;
12302;SDS011;6214;48.012;7.862;2022-09-09T13:36:12;3.30;;;0.60;;
12302;SDS011;6214;48.012;7.862;2022-09-09T13:38:56;4.22;;;0.70;;
12302;SDS011;6214;48.012;7.862;2022-09-09T13:41:30;4.10;;;0.80;;
12302;SDS011;6214;48.012;7.862;2022-09-09T13:44:20;4.30;;;0.70;;
12302;SDS011;6214;48.012;7.862;2022-09-09T13:49:36;3.60;;;0.70;;
12302;SDS011;6214;48.012;7.862;2022-09-09T13:52:04;3.88;;;0.70;;
12302;SDS011;6214;48.012;7.862;2022-09-09T13:54:33;3.50;;;0.60;;
12302;SDS011;6214;48.012;7.862;2022-09-09T13:57:01;3.53;;;0.60;;
12302;SDS011;6214;48.012;7.862;2022-09-09T13:59:30;3.63;;;0.60;;
12302;SDS011;6214;48.012;7.862;2022-09-09T14:02:18;3.45;;;0.43;;
12302;SDS011;6214;48.012;7.862;2022-09-09T14:04:45;3.90;;;0.60;;
12302;SDS011;6214;48.012;7.862;2022-09-09T14:07:14;3.50;;;0.60;;
12302;SDS011;6214;48.012;7.862;2022-09-09T14:09:42;4.10;;;0.80;;
12302;SDS011;6214;48.012;7.862;2022-09-09T14:12:13;3.60;;;0.60;;
12302;SDS011;6214;48.012;7.862;2022-09-09T14:14:41;4.00;;;0.70;;
12302;SDS011;6214;48.012;7.862;2022-09-09T14:17:09;4.10;;;0.70;;
12302;SDS011;6214;48.012;7.862;2022-09-09T14:19:36;4.05;;;0.68;;
12302;SDS011;6214;48.012;7.862;2022-09-09T14:22:05;5.20;;;0.80;;
12302;SDS011;6214;48.012;7.862;2022-09-09T14:24:32;3.88;;;0.73;;
12302;SDS011;6214;48.012;7.862;2022-09-09T14:27:00;4.90;;;1.00;;
12302;SDS011;6214;48.012;7.862;2022-09-09T14:29:27;4.75;;;0.80;;
12302;SDS011;6214;48.012;7.862;2022-09-09T14:31:54;4.50;;;0.80;;
12302;SDS011;6214;48.012;7.862;2022-09-09T14:34:21;4.10;;;0.80;;
12302;SDS011;6214;48.012;7.862;2022-09-09T14:36:48;4.00;;;1.00;;
12302;SDS011;6214;48.012;7.862;2022-09-09T14:39:16;3.80;;;0.70;;
12302;SDS011;6214;48.012;7.862;2022-09-09T14:41:43;4.35;;;0.80;;
12302;SDS011;6214;48.012;7.862;2022-09-09T14:44:11;4.50;;;0.90;;
12302;SDS011;6214;48.012;7.862;2022-09-09T14:46:38;5.30;;;1.10;;
12302;SDS011;6214;48.012;7.862;2022-09-09T14:49:05;4.25;;;0.80;;
12302;SDS011;6214;48.012;7.862;2022-09-09T14:51:32;4.30;;;0.90;;
12302;SDS011;6214;48.012;7.862;2022-09-09T14:54:00;5.40;;;1.07;;
12302;SDS011;6214;48.012;7.862;2022-09-09T14:56:30;5.07;;;0.93;;
12302;SDS011;6214;48.012;7.862;2022-09-09T14:59:00;4.30;;;0.80;;
12302;SDS011;6214;48.012;7.862;2022-09-09T15:01:28;3.90;;;0.70;;
12302;SDS011;6214;48.012;7.862;2022-09-09T15:03:57;4.97;;;0.85;;
12302;SDS011;6214;48.012;7.862;2022-09-09T15:06:26;5.53;;;1.00;;
12302;SDS011;6214;48.012;7.862;2022-09-09T15:08:55;4.70;;;0.80;;
12302;SDS011;6214;48.012;7.862;2022-09-09T15:11:27;4.37;;;0.80;;
12302;SDS011;6214;48.012;7.862;2022-09-09T15:13:56;4.07;;;0.80;;
12302;SDS011;6214;48.012;7.862;2022-09-09T15:16:25;4.10;;;0.77;;
12302;SDS011;6214;48.012;7.862;2022-09-09T15:18:54;3.70;;;0.70;;
12302;SDS011;6214;48.012;7.862;2022-09-09T15:21:24;3.58;;;0.70;;
12302;SDS011;6214;48.012;7.862;2022-09-09T15:23:52;4.00;;;0.75;;
12302;SDS011;6214;48.012;7.862;2022-09-09T15:26:20;4.20;;;0.70;;
12302;SDS011;6214;48.012;7.862;2022-09-09T15:28:47;5.30;;;1.10;;
12302;SDS011;6214;48.012;7.862;2022-09-09T15:36:22;3.80;;;0.70;;
12302;SDS011;6214;48.012;7.862;2022-09-09T15:38:50;3.55;;;0.70;;
12302;SDS011;6214;48.012;7.862;2022-09-09T15:41:19;4.30;;;0.80;;
12302;SDS011;6214;48.012;7.862;2022-09-09T15:43:48;4.00;;;0.70;;
12302;SDS011;6214;48.012;7.862;2022-09-09T15:48:44;4.18;;;0.80;;
12302;SDS011;6214;48.012;7.862;2022-09-09T15:51:15;3.55;;;0.70;;
12302;SDS011;6214;48.012;7.862;2022-09-09T15:54:02;4.25;;;0.90;;
12302;SDS011;6214;48.012;7.862;2022-09-09T15:56:29;4.15;;;0.85;;
12302;SDS011;6214;48.012;7.862;2022-09-09T15:58:57;3.63;;;0.80;;
12302;SDS011;6214;48.012;7.862;2022-09-09T16:01:28;4.00;;;0.80;;
12302;SDS011;6214;48.012;7.862;2022-09-09T16:03:57;4.00;;;0.90;;
12302;SDS011;6214;48.012;7.862;2022-09-09T16:06:25;4.60;;;0.90;;
12302;SDS011;6214;48.012;7.862;2022-09-09T16:08:55;4.97;;;0.80;;
12302;SDS011;6214;48.012;7.862;2022-09-09T16:11:28;4.43;;;0.90;;
12302;SDS011;6214;48.012;7.862;2022-09-09T16:13:58;4.75;;;1.00;;
12302;SDS011;6214;48.012;7.862;2022-09-09T16:16:28;3.80;;;0.80;;
12302;SDS011;6214;48.012;7.862;2022-09-09T16:18:57;4.20;;;0.80;;
12302;SDS011;6214;48.012;7.862;2022-09-09T16:21:37;4.20;;;0.90;;
12302;SDS011;6214;48.012;7.862;2022-09-09T16:24:15;4.25;;;0.88;;
12302;SDS011;6214;48.012;7.862;2022-09-09T16:26:49;4.43;;;0.90;;
12302;SDS011;6214;48.012;7.862;2022-09-09T16:29:18;4.70;;;0.80;;
12302;SDS011;6214;48.012;7.862;2022-09-09T16:31:48;4.93;;;1.10;;
12302;SDS011;6214;48.012;7.862;2022-09-09T16:34:17;5.30;;;1.15;;
12302;SDS011;6214;48.012;7.862;2022-09-09T16:36:46;4.20;;;1.10;;
12302;SDS011;6214;48.012;7.862;2022-09-09T16:39:15;4.60;;;0.90;;
12302;SDS011;6214;48.012;7.862;2022-09-09T16:41:47;4.70;;;0.90;;
12302;SDS011;6214;48.012;7.862;2022-09-09T16:44:15;3.80;;;0.70;;
12302;SDS011;6214;48.012;7.862;2022-09-09T16:46:45;4.10;;;0.80;;
12302;SDS011;6214;48.012;7.862;2022-09-09T16:49:15;5.45;;;1.20;;
12302;SDS011;6214;48.012;7.862;2022-09-09T16:51:46;4.60;;;0.90;;
12302;SDS011;6214;48.012;7.862;2022-09-09T16:54:15;4.90;;;1.00;;
12302;SDS011;6214;48.012;7.862;2022-09-09T16:56:44;5.57;;;1.20;;
12302;SDS011;6214;48.012;7.862;2022-09-09T16:59:13;4.20;;;1.00;;
12302;SDS011;6214;48.012;7.862;2022-09-09T17:01:42;4.53;;;1.20;;
12302;SDS011;6214;48.012;7.862;2022-09-09T17:04:13;4.22;;;0.88;;
12302;SDS011;6214;48.012;7.862;2022-09-09T17:06:45;4.60;;;1.00;;
12302;SDS011;6214;48.012;7.862;2022-09-09T17:09:13;4.43;;;0.80;;
12302;SDS011;6214;48.012;7.862;2022-09-09T17:11:40;4.50;;;1.10;;
12302;SDS011;6214;48.012;7.862;2022-09-09T17:14:08;5.25;;;1.27;;
12302;SDS011;6214;48.012;7.862;2022-09-09T17:16:39;4.00;;;0.85;;
12302;SDS011;6214;48.012;7.862;2022-09-09T17:19:06;4.13;;;1.00;;
12302;SDS011;6214;48.012;7.862;2022-09-09T17:21:35;3.65;;;0.80;;
12302;SDS011;6214;48.012;7.862;2022-09-09T17:24:23;4.47;;;0.90;;
12302;SDS011;6214;48.012;7.862;2022-09-09T17:26:51;4.47;;;1.00;;
12302;SDS011;6214;48.012;7.862;2022-09-09T17:29:20;4.40;;;1.07;;
12302;SDS011;6214;48.012;7.862;2022-09-09T17:31:48;4.57;;;0.95;;
12302;SDS011;6214;48.012;7.862;2022-09-09T17:34:15;4.65;;;0.98;;
12302;SDS011;6214;48.012;7.862;2022-09-09T17:36:42;4.50;;;0.90;;
12302;SDS011;6214;48.012;7.862;2022-09-09T17:39:09;4.60;;;1.00;;
12302;SDS011;6214;48.012;7.862;2022-09-09T17:41:37;5.13;;;1.30;;
12302;SDS011;6214;48.012;7.862;2022-09-09T17:44:05;4.40;;;1.08;;
12302;SDS011;6214;48.012;7.862;2022-09-09T17:46:39;4.30;;;0.70;;
12302;SDS011;6214;48.012;7.862;2022-09-09T17:49:09;4.60;;;1.00;;
12302;SDS011;6214;48.012;7.862;2022-09-09T17:51:38;4.80;;;0.80;;
12302;SDS011;6214;48.012;7.862;2022-09-09T17:54:12;4.80;;;1.10;;
12302;SDS011;6214;48.012;7.862;2022-09-09T17:56:44;5.30;;;1.10;;
12302;SDS011;6214;48.012;7.862;2022-09-09T17:59:12;6.20;;;1.60;;
12302;SDS011;6214;48.012;7.862;2022-09-09T18:01:42;4.60;;;1.00;;